Atlanta, MI

3:14 PM EST on February 24, 2017 (GMT -0500)
Sheridan Valley | | Change Station
Active Advisory: Winter Weather Advisory

Elev 1367 ft 44.91 °N, 84.24 °W | Updated 15 minutes ago

Overcast
Overcast
32.9 °F
Feels Like 33 °F
N
0.0
Wind Variable Wind from NNE

Today
High -- | Low -- °F
--% Chance of Precip.
Yesterday
High -- | Low -- °F
Precip. -- in
Pressure 29.55 in
Visibility 3.0 miles
Clouds Overcast 600 ft
Windchill 33 °F
Dew Point 33 °F
Humidity 99%
Rainfall 0.87 in
Snow Depth Not available.
7:22 AM 6:17 PM
Waning Crescent, 4% visible
SPECI KGLR 242009Z AUTO 07013G18KT 3SM BR OVC006 01/M01 A2955 RMK AO2 LTG DSNT SW T00111011
Pressure 29.55 in
Visibility 3.0 miles
Clouds Overcast 600 ft
Windchill 33 °F
Dew Point 33 °F
Humidity 99%
Rainfall 0.87 in
Snow Depth Not available.
7:22 AM 6:17 PM
Waning Crescent, 4% visible
SPECI KGLR 242009Z AUTO 07013G18KT 3SM BR OVC006 01/M01 A2955 RMK AO2 LTG DSNT SW T00111011

Get Your Daily Forecast Email!

Thanks for signing up!

Be on the lookout for a verification email in your inbox.

You'll start receiving the daily forecast at 8 AM.

×

10-Day Weather Forecast

Almanac

Astronomy

Feb. 24, 2017 Rise Set
Actual Time
Civil Twilight
Nautical Twilight
Astronomical Twilight
Moon
Length of Visible Light
Length of Day
Tomorrow will be .
, % of the Moon is Illuminated

Today's Extremes

State Highs State Lows

Community

WunderPhotos

Upload Photos

1,962,540 photos uploaded!

WunderBlog® & News

Nearby

Air Quality

  Air Quality AQ Index Pollutant
Not available.

Snow Depth

Station Depth Elevation

Earthquake Activity

City Distance Mag. Time & Date
Minimum magnitude displayed is 2.5.

Coastal Water Temperatures

Place Temperature

Stations

Nearby Weather Stations

Station Location Temp. Windchill Dew Point Humidity Wind Precip. Elev Updated Type
                   

Watches & Warnings

Winter Weather Advisory
Issued: 11:57 AM EST Feb. 24, 2017 – National Weather Service

... Winter Weather Advisory remains in effect until 1 am EST
Saturday...

* a wintry mix of precipitation will transition over to mainly
rain for much of the area through afternoon. However, falling
temperatures to at or below freezing into the evening and
additional precipitation expected, more of a wintry mix is
expected.

* Total snow accumulations of 2 to 5 inches and ice accumulations
of up to one tenth of an inch are expected.

* Look for reduced visibilities at times.

* Travel will be hazardous.


Precautionary/preparedness actions...

A Winter Weather Advisory means that periods of snow... sleet or
freezing rain will cause travel difficulties. Be prepared for
slippery roads and limited visibilities... and use caution while
driving. For the latest Road conditions... go to the mdot website
at Michigan.Gov.